createdAt,value
2018-03-04T00:01:33.961Z,63.48
2018-03-04T00:03:36.556Z,63.76
2018-03-04T00:05:39.058Z,63.36
2018-03-04T00:07:41.565Z,64.12
2018-03-04T00:09:44.103Z,64.53
2018-03-04T00:11:46.570Z,64.88
2018-03-04T00:13:49.090Z,65.07
2018-03-04T00:15:51.565Z,65.15
2018-03-04T00:17:54.036Z,65.49
2018-03-04T00:19:56.534Z,66.17
2018-03-04T00:21:59.096Z,66.17
2018-03-04T00:24:01.574Z,66.43
2018-03-04T00:26:04.066Z,66.56
2018-03-04T00:28:06.565Z,67.31
2018-03-04T00:30:09.061Z,68.11
2018-03-04T00:32:11.515Z,68.20
2018-03-04T00:34:14.012Z,68.01
2018-03-04T00:36:16.551Z,68.87
2018-03-04T00:38:19.092Z,68.99
2018-03-04T00:40:21.597Z,68.50
2018-03-04T00:42:24.122Z,68.27
2018-03-04T00:44:26.596Z,69.04
2018-03-04T00:46:29.175Z,69.13
2018-03-04T00:48:31.698Z,69.46
2018-03-04T00:50:34.201Z,69.45
2018-03-04T00:52:36.681Z,69.34
2018-03-04T00:54:39.177Z,69.23
2018-03-04T00:56:41.671Z,69.37
2018-03-04T00:58:44.172Z,69.40
2018-03-04T01:00:46.666Z,69.49
2018-03-04T01:02:49.174Z,70.25
2018-03-04T01:04:51.700Z,70.56
2018-03-04T01:06:54.190Z,70.09
2018-03-04T01:08:56.686Z,70.31
2018-03-04T01:10:59.140Z,70.63
2018-03-04T01:13:01.701Z,71.22
2018-03-04T01:15:04.192Z,70.67
2018-03-04T01:17:06.765Z,71.38
2018-03-04T01:19:09.218Z,71.71
2018-03-04T01:21:11.697Z,71.71
2018-03-04T01:23:14.251Z,71.47
2018-03-04T01:25:16.767Z,72.03
2018-03-04T01:27:19.231Z,71.69
2018-03-04T01:29:21.775Z,71.91
2018-03-04T01:31:24.326Z,71.59
2018-03-04T01:33:26.802Z,72.38
2018-03-04T01:35:29.290Z,72.03
2018-03-04T01:37:31.840Z,72.54
2018-03-04T01:39:34.305Z,72.99
2018-03-04T01:41:36.791Z,72.88
2018-03-04T01:43:39.303Z,72.79
2018-03-04T01:45:41.778Z,73.15
2018-03-04T01:47:44.351Z,73.44
2018-03-04T01:49:46.858Z,73.09
2018-03-04T01:51:52.416Z,73.08
2018-03-04T01:53:54.911Z,73.83
2018-03-04T01:55:57.567Z,74.03
2018-03-04T01:58:00.030Z,74.38
2018-03-04T02:00:02.528Z,74.60
2018-03-04T02:02:05.021Z,74.76
2018-03-04T02:04:07.520Z,74.39
2018-03-04T02:06:10.031Z,74.73
2018-03-04T02:08:12.528Z,74.76
2018-03-04T02:10:15.113Z,74.83
2018-03-04T02:12:17.545Z,75.13
2018-03-04T02:14:20.019Z,75.03
2018-03-04T02:16:22.481Z,74.85
2018-03-04T02:18:24.976Z,74.51
2018-03-04T02:20:27.493Z,74.95
2018-03-04T02:22:30.076Z,75.05
2018-03-04T02:24:32.572Z,74.92
2018-03-04T02:26:35.102Z,74.96
2018-03-04T02:28:37.553Z,74.87
2018-03-04T02:30:40.051Z,75.13
2018-03-04T02:32:42.650Z,75.01
2018-03-04T02:34:45.124Z,74.86
2018-03-04T02:36:47.631Z,74.93
2018-03-04T02:38:50.117Z,75.04
2018-03-04T02:40:52.592Z,75.13
2018-03-04T02:42:55.053Z,75.44
2018-03-04T02:44:57.552Z,75.91
2018-03-04T02:46:59.992Z,75.58
2018-03-04T02:49:02.491Z,75.52
2018-03-04T02:51:04.993Z,75.78
2018-03-04T02:53:07.466Z,75.79
2018-03-04T02:55:09.961Z,75.76
2018-03-04T02:57:12.488Z,75.70
2018-03-04T02:59:14.964Z,75.97
2018-03-04T03:01:17.551Z,75.91
2018-03-04T03:03:20.047Z,75.75
2018-03-04T03:05:22.498Z,75.70
2018-03-04T03:07:25.003Z,76.08
2018-03-04T03:09:27.473Z,75.45
2018-03-04T03:11:30.041Z,75.66
2018-03-04T03:13:32.708Z,75.43
2018-03-04T03:15:35.310Z,75.47
2018-03-04T03:17:37.757Z,75.45
2018-03-04T03:19:40.288Z,75.23
2018-03-04T03:21:42.813Z,75.33
2018-03-04T03:23:45.381Z,75.39
2018-03-04T03:25:47.848Z,75.25
2018-03-04T03:27:50.357Z,75.23
2018-03-04T03:29:52.826Z,75.14
2018-03-04T03:31:55.298Z,75.20
2018-03-04T03:33:57.767Z,75.45
2018-03-04T03:36:00.250Z,75.67
2018-03-04T03:38:02.732Z,75.51
2018-03-04T03:40:05.218Z,75.43
2018-03-04T03:42:07.713Z,75.97
2018-03-04T03:44:10.171Z,75.45
2018-03-04T03:46:12.662Z,75.26
2018-03-04T03:48:15.168Z,75.41
2018-03-04T03:50:17.621Z,75.27
2018-03-04T03:52:20.129Z,75.13
2018-03-04T03:54:22.674Z,75.08
2018-03-04T03:56:25.113Z,75.35
2018-03-04T03:58:27.709Z,75.41
2018-03-04T04:00:30.234Z,75.21
2018-03-04T04:02:32.680Z,75.43
2018-03-04T04:04:35.172Z,75.65
2018-03-04T04:06:37.609Z,76.12
2018-03-04T04:08:40.186Z,76.15
2018-03-04T04:10:42.728Z,76.07
2018-03-04T04:12:45.179Z,76.12
2018-03-04T04:14:47.650Z,75.76
2018-03-04T04:16:50.130Z,75.71
2018-03-04T04:18:52.691Z,75.63
2018-03-04T04:20:55.188Z,75.85
2018-03-04T04:22:57.674Z,75.44
2018-03-04T04:25:00.130Z,75.94
2018-03-04T04:27:02.578Z,76.26
2018-03-04T04:29:05.072Z,76.23
2018-03-04T04:31:07.657Z,76.76
2018-03-04T04:33:10.130Z,76.44
2018-03-04T04:35:12.674Z,76.76
2018-03-04T04:37:15.236Z,76.79
2018-03-04T04:39:17.769Z,77.16
2018-03-04T04:41:20.333Z,77.37
2018-03-04T04:43:22.839Z,77.21
2018-03-04T04:45:25.342Z,77.17
2018-03-04T04:47:27.909Z,77.13
2018-03-04T04:49:30.395Z,77.01
2018-03-04T04:51:32.887Z,76.60
2018-03-04T04:53:35.339Z,77.04
2018-03-04T04:55:37.856Z,77.21
2018-03-04T04:57:40.372Z,77.02
2018-03-04T04:59:42.819Z,76.94
2018-03-04T05:01:45.323Z,77.02
2018-03-04T05:03:47.851Z,77.11
2018-03-04T05:05:50.340Z,77.14
2018-03-04T05:07:52.930Z,77.38
2018-03-04T05:09:55.389Z,77.61
2018-03-04T05:11:57.969Z,77.49
2018-03-04T05:14:00.522Z,77.64
2018-03-04T05:16:03.008Z,77.77
2018-03-04T05:18:05.481Z,78.01
2018-03-04T05:20:07.950Z,78.01
2018-03-04T05:22:10.484Z,78.08
2018-03-04T05:24:12.944Z,77.78
2018-03-04T05:26:15.374Z,77.66
2018-03-04T05:28:17.871Z,77.85
2018-03-04T05:30:20.327Z,78.05
2018-03-04T05:32:22.830Z,78.58
2018-03-04T05:34:25.322Z,78.72
2018-03-04T05:36:27.769Z,78.32
2018-03-04T05:38:30.263Z,77.75
2018-03-04T05:40:32.773Z,78.08
2018-03-04T05:42:35.270Z,78.30
2018-03-04T05:44:37.739Z,78.35
2018-03-04T05:46:40.309Z,78.43
2018-03-04T05:48:42.795Z,78.11
2018-03-04T05:50:45.292Z,78.13
2018-03-04T05:52:47.888Z,78.16
2018-03-04T05:54:50.346Z,78.03
2018-03-04T05:56:53.899Z,77.86
2018-03-04T05:58:56.350Z,78.21
2018-03-04T06:00:58.992Z,77.76
2018-03-04T06:03:01.440Z,77.96
2018-03-04T06:05:03.902Z,77.91
2018-03-04T06:07:06.409Z,78.37
2018-03-04T06:09:09.060Z,78.42
2018-03-04T06:11:11.526Z,78.13
2018-03-04T06:13:14.013Z,78.27
2018-03-04T06:15:16.435Z,78.15
2018-03-04T06:17:18.969Z,78.01
2018-03-04T06:19:21.444Z,77.50
2018-03-04T06:21:23.897Z,77.48
2018-03-04T06:23:26.390Z,78.43
2018-03-04T06:25:28.875Z,77.43
2018-03-04T06:27:31.365Z,76.82
2018-03-04T06:29:33.990Z,76.73
2018-03-04T06:31:36.466Z,76.94
2018-03-04T06:33:38.979Z,76.63
2018-03-04T06:35:41.473Z,77.31
2018-03-04T06:37:43.976Z,77.30
2018-03-04T06:39:46.419Z,77.13
2018-03-04T06:41:48.946Z,77.02
2018-03-04T06:43:51.465Z,76.46
2018-03-04T06:45:53.926Z,77.31
2018-03-04T06:47:56.400Z,76.98
2018-03-04T06:49:59.036Z,76.24
2018-03-04T06:52:01.490Z,75.96
2018-03-04T06:54:04.010Z,76.16
2018-03-04T06:56:06.484Z,75.95
2018-03-04T06:58:08.931Z,75.48
2018-03-04T07:00:11.594Z,75.80
2018-03-04T07:02:14.062Z,75.21
2018-03-04T07:04:16.629Z,76.05
2018-03-04T07:06:19.169Z,75.86
2018-03-04T07:08:21.642Z,75.32
2018-03-04T07:10:24.130Z,75.28
2018-03-04T07:12:26.625Z,75.62
2018-03-04T07:14:29.150Z,75.47
2018-03-04T07:16:31.779Z,75.34
2018-03-04T07:18:34.355Z,74.99
2018-03-04T07:20:36.835Z,75.42
2018-03-04T07:22:39.428Z,75.14
2018-03-04T07:24:41.894Z,74.45
2018-03-04T07:26:44.390Z,74.84
2018-03-04T07:28:46.914Z,74.47
2018-03-04T07:30:49.380Z,74.59
2018-03-04T07:32:51.950Z,74.95
2018-03-04T07:34:54.446Z,74.21
2018-03-04T07:36:56.979Z,74.61
2018-03-04T07:38:59.476Z,74.47
2018-03-04T07:41:01.963Z,74.02
2018-03-04T07:43:04.454Z,74.48
2018-03-04T07:45:07.057Z,74.78
2018-03-04T07:47:09.549Z,75.16
2018-03-04T07:49:12.129Z,74.80
2018-03-04T07:51:14.662Z,74.51
2018-03-04T07:53:17.234Z,75.09
2018-03-04T07:55:19.722Z,74.67
2018-03-04T07:57:22.220Z,74.46
2018-03-04T07:59:24.702Z,73.99
2018-03-04T08:01:27.307Z,74.73
2018-03-04T08:03:29.794Z,74.86
2018-03-04T08:05:32.286Z,74.33
2018-03-04T08:07:34.815Z,73.99
2018-03-04T08:09:37.379Z,74.38
2018-03-04T08:11:39.870Z,73.19
2018-03-04T08:13:42.370Z,74.52
2018-03-04T08:15:44.855Z,75.23
2018-03-04T08:17:47.405Z,75.70
2018-03-04T08:19:49.916Z,74.34
2018-03-04T08:21:52.427Z,74.31
2018-03-04T08:23:54.885Z,73.96
2018-03-04T08:26:08.993Z,72.74
2018-03-04T08:28:23.160Z,72.87
2018-03-04T08:30:25.850Z,74.02
2018-03-04T08:32:28.322Z,72.99
2018-03-04T08:34:30.820Z,72.48
2018-03-04T08:36:33.306Z,70.94
2018-03-04T08:38:35.806Z,71.64
2018-03-04T08:40:38.315Z,72.57
2018-03-04T08:42:40.796Z,71.92
2018-03-04T08:44:43.260Z,72.39
2018-03-04T08:46:45.800Z,73.61
2018-03-04T08:48:48.286Z,73.41
2018-03-04T08:50:50.886Z,72.97
2018-03-04T08:52:53.451Z,72.96
2018-03-04T08:54:55.940Z,71.87
2018-03-04T08:56:58.436Z,71.93
2018-03-04T08:59:00.957Z,72.14
2018-03-04T09:01:03.460Z,72.72
2018-03-04T09:03:06.018Z,73.63
2018-03-04T09:05:08.510Z,72.42
2018-03-04T09:07:11.001Z,72.75
2018-03-04T09:09:13.497Z,71.89
2018-03-04T09:11:16.012Z,71.33
2018-03-04T09:13:18.469Z,71.59
2018-03-04T09:15:21.017Z,71.51
2018-03-04T09:17:23.472Z,71.74
2018-03-04T09:19:26.103Z,71.84
2018-03-04T09:21:28.606Z,71.39
2018-03-04T09:23:31.089Z,71.58
2018-03-04T09:25:33.650Z,72.36
2018-03-04T09:27:36.176Z,70.64
2018-03-04T09:29:38.688Z,70.13
2018-03-04T09:31:41.202Z,70.19
2018-03-04T09:33:43.750Z,69.96
2018-03-04T09:35:46.283Z,70.58
2018-03-04T09:37:48.938Z,70.23
2018-03-04T09:39:51.441Z,70.15
2018-03-04T09:41:53.922Z,70.04
2018-03-04T09:43:56.526Z,70.02
2018-03-04T09:45:58.988Z,70.51
2018-03-04T09:48:01.481Z,69.66
2018-03-04T09:50:03.979Z,69.04
2018-03-04T09:52:06.491Z,69.17
2018-03-04T09:54:09.011Z,69.52
2018-03-04T09:56:11.479Z,69.68
2018-03-04T09:58:15.046Z,70.29
2018-03-04T10:00:17.593Z,69.92
2018-03-04T10:02:20.193Z,70.65
2018-03-04T10:04:22.678Z,69.21
2018-03-04T10:06:25.162Z,69.14
2018-03-04T10:08:27.668Z,68.93
2018-03-04T10:10:30.158Z,69.65
2018-03-04T10:12:32.681Z,69.98
2018-03-04T10:14:35.186Z,70.90
2018-03-04T10:16:37.654Z,70.83
2018-03-04T10:18:40.251Z,70.74
2018-03-04T10:20:42.843Z,70.61
2018-03-04T10:22:45.317Z,70.87
2018-03-04T10:24:47.934Z,70.27
2018-03-04T10:26:50.418Z,71.21
2018-03-04T10:28:52.891Z,71.23
2018-03-04T10:30:55.498Z,71.87
2018-03-04T10:32:57.961Z,70.78
2018-03-04T10:35:00.428Z,70.43
2018-03-04T10:37:02.947Z,70.49
2018-03-04T10:39:05.399Z,70.54
2018-03-04T10:41:07.962Z,70.39
2018-03-04T10:43:10.562Z,71.15
2018-03-04T10:45:13.059Z,71.70
2018-03-04T10:47:15.575Z,70.91
2018-03-04T10:49:18.142Z,71.11
2018-03-04T10:51:20.643Z,70.59
2018-03-04T10:53:24.307Z,70.68
2018-03-04T10:55:26.834Z,70.48
2018-03-04T10:57:29.307Z,70.17
2018-03-04T10:59:31.814Z,70.20
2018-03-04T11:01:35.073Z,70.51
2018-03-04T11:03:37.562Z,70.88
2018-03-04T11:05:40.122Z,70.72
2018-03-04T11:07:42.623Z,71.58
2018-03-04T11:09:45.266Z,70.17
2018-03-04T11:11:47.749Z,69.79
2018-03-04T11:13:50.269Z,69.70
2018-03-04T11:15:52.793Z,69.69
2018-03-04T11:17:55.270Z,69.49
2018-03-04T11:19:57.791Z,70.28
2018-03-04T11:22:00.317Z,69.80
2018-03-04T11:24:02.818Z,69.68
2018-03-04T11:26:06.138Z,69.94
2018-03-04T11:28:08.607Z,69.06
2018-03-04T11:30:12.118Z,67.47
2018-03-04T11:32:14.677Z,67.04
2018-03-04T11:34:17.287Z,68.60
2018-03-04T11:36:19.808Z,66.23
2018-03-04T11:38:22.387Z,66.77
2018-03-04T11:40:24.902Z,66.71
2018-03-04T11:42:27.489Z,66.23
2018-03-04T11:44:30.098Z,66.43
2018-03-04T11:46:32.708Z,65.46
2018-03-04T11:48:35.232Z,66.58
2018-03-04T11:50:37.666Z,65.41
2018-03-04T11:52:40.135Z,66.23
2018-03-04T11:54:42.649Z,66.19
2018-03-04T11:56:45.224Z,66.23
2018-03-04T11:58:47.738Z,66.94
2018-03-04T12:00:50.209Z,67.36
2018-03-04T12:02:52.746Z,66.99
2018-03-04T12:04:55.294Z,66.46
2018-03-04T12:06:57.798Z,66.09
2018-03-04T12:09:00.300Z,64.81
2018-03-04T12:11:02.830Z,64.57
2018-03-04T12:13:05.341Z,64.53
2018-03-04T12:15:07.833Z,65.31
2018-03-04T12:17:10.414Z,66.34
2018-03-04T12:19:13.065Z,66.03
2018-03-04T12:21:15.590Z,66.30
2018-03-04T12:23:18.082Z,66.69
2018-03-04T12:25:20.641Z,66.69
2018-03-04T12:27:23.149Z,67.99
2018-03-04T12:29:25.659Z,68.46
2018-03-04T12:31:28.771Z,68.51
2018-03-04T12:33:31.346Z,67.95
2018-03-04T12:35:34.025Z,68.30
2018-03-04T12:37:36.512Z,68.33
2018-03-04T12:39:39.133Z,68.23
2018-03-04T12:41:41.764Z,68.53
2018-03-04T12:43:44.289Z,67.97
2018-03-04T12:45:46.769Z,67.90
2018-03-04T12:47:49.269Z,68.32
2018-03-04T12:49:51.754Z,68.50
2018-03-04T12:51:54.283Z,68.49
2018-03-04T12:53:56.849Z,68.63
2018-03-04T12:55:59.315Z,69.30
2018-03-04T12:58:01.860Z,69.55
2018-03-04T13:00:04.361Z,69.52
2018-03-04T13:02:06.908Z,69.16
2018-03-04T13:04:09.454Z,68.75
2018-03-04T13:06:11.909Z,68.30
2018-03-04T13:08:14.430Z,68.50
2018-03-04T13:10:16.899Z,68.76
2018-03-04T13:12:19.390Z,68.94
2018-03-04T13:14:21.924Z,69.09
2018-03-04T13:16:24.370Z,69.26
2018-03-04T13:18:26.977Z,69.89
2018-03-04T13:20:29.464Z,69.19
2018-03-04T13:22:31.975Z,69.11
2018-03-04T13:24:34.471Z,69.10
2018-03-04T13:26:37.079Z,69.39
2018-03-04T13:28:39.593Z,69.74
2018-03-04T13:30:42.071Z,69.23
2018-03-04T13:32:44.560Z,69.19
2018-03-04T13:34:47.143Z,68.89
2018-03-04T13:36:49.611Z,68.85
2018-03-04T13:38:52.124Z,69.63
2018-03-04T13:40:54.672Z,69.52
2018-03-04T13:42:57.215Z,69.56
2018-03-04T13:44:59.772Z,69.77
2018-03-04T13:47:02.284Z,69.81
2018-03-04T13:49:04.778Z,70.19
2018-03-04T13:51:07.302Z,70.16
2018-03-04T13:53:09.821Z,70.48
2018-03-04T13:55:12.384Z,70.83
2018-03-04T13:57:14.906Z,71.51
2018-03-04T13:59:17.371Z,71.47
2018-03-04T14:01:19.983Z,71.56
2018-03-04T14:03:22.506Z,71.73
2018-03-04T14:05:24.998Z,72.05
2018-03-04T14:07:27.529Z,72.25
2018-03-04T14:09:30.070Z,72.18
2018-03-04T14:11:32.630Z,73.21
2018-03-04T14:13:35.122Z,73.41
2018-03-04T14:15:37.622Z,73.89
2018-03-04T14:17:40.164Z,73.50
2018-03-04T14:19:42.647Z,73.32
2018-03-04T14:21:45.160Z,73.18
2018-03-04T14:23:47.807Z,72.99
2018-03-04T14:25:50.406Z,73.28
2018-03-04T14:27:52.892Z,72.85
2018-03-04T14:29:55.470Z,72.40
2018-03-04T14:31:57.991Z,71.97
2018-03-04T14:34:00.493Z,72.24
2018-03-04T14:36:03.025Z,72.29
2018-03-04T14:38:05.489Z,72.06
2018-03-04T14:40:08.044Z,72.00
2018-03-04T14:42:10.525Z,71.93
2018-03-04T14:44:13.156Z,71.96
2018-03-04T14:46:15.817Z,71.93
2018-03-04T14:48:18.399Z,71.87
2018-03-04T14:50:20.890Z,71.90
2018-03-04T14:52:23.392Z,71.84
2018-03-04T14:54:25.920Z,72.16
2018-03-04T14:56:28.438Z,72.08
2018-03-04T14:58:30.918Z,71.76
2018-03-04T15:00:33.501Z,71.69
2018-03-04T15:02:35.993Z,71.85
2018-03-04T15:04:38.675Z,72.12
2018-03-04T15:06:41.181Z,72.47
2018-03-04T15:08:43.681Z,72.61
2018-03-04T15:10:46.470Z,72.38
2018-03-04T15:12:49.036Z,73.09
2018-03-04T15:14:51.701Z,72.41
2018-03-04T15:16:54.316Z,72.44
2018-03-04T15:18:57.166Z,72.58
2018-03-04T15:20:59.746Z,72.96
2018-03-04T15:23:02.271Z,72.33
2018-03-04T15:25:04.742Z,72.38
2018-03-04T15:27:07.333Z,72.55
2018-03-04T15:29:09.872Z,72.36
2018-03-04T15:31:12.343Z,72.68
2018-03-04T15:33:14.948Z,72.65
2018-03-04T15:35:18.021Z,72.70
2018-03-04T15:37:20.743Z,73.12
2018-03-04T15:39:23.224Z,72.83
2018-03-04T15:41:25.810Z,73.83
2018-03-04T15:43:28.561Z,73.73
2018-03-04T15:45:31.537Z,73.74
2018-03-04T15:47:34.104Z,73.53
2018-03-04T15:49:36.828Z,74.53
2018-03-04T15:51:40.526Z,74.48
2018-03-04T15:53:44.115Z,74.80
2018-03-04T15:55:47.529Z,75.08
2018-03-04T15:57:50.436Z,74.83
2018-03-04T15:59:53.013Z,74.97
2018-03-04T16:01:57.558Z,75.23
2018-03-04T16:04:01.072Z,75.63
2018-03-04T16:06:05.243Z,75.45
2018-03-04T16:08:09.501Z,75.60
2018-03-04T16:10:13.970Z,76.27
2018-03-04T16:12:16.604Z,76.31
2018-03-04T16:14:19.715Z,76.76
2018-03-04T16:16:23.115Z,77.03
2018-03-04T16:18:26.208Z,77.02
2018-03-04T16:20:28.809Z,77.02
2018-03-04T16:22:31.388Z,77.29
2018-03-04T16:24:34.212Z,77.45
2018-03-04T16:26:37.049Z,77.34
2018-03-04T16:28:39.764Z,77.53
2018-03-04T16:30:42.937Z,77.71
2018-03-04T16:32:47.661Z,77.46
2018-03-04T16:34:52.043Z,77.63
2018-03-04T16:36:55.644Z,77.97
2018-03-04T16:38:59.543Z,78.34
2018-03-04T16:41:02.511Z,78.50
2018-03-04T16:43:06.524Z,78.53
2018-03-04T16:45:10.672Z,78.88
2018-03-04T16:47:13.248Z,78.55
2018-03-04T16:49:15.761Z,78.88
2018-03-04T16:51:18.402Z,79.07
2018-03-04T16:53:21.108Z,79.30
2018-03-04T16:55:23.646Z,78.95
2018-03-04T16:57:26.220Z,79.10
2018-03-04T16:59:29.543Z,79.22
2018-03-04T17:01:35.159Z,79.45
2018-03-04T17:03:38.227Z,79.32
2018-03-04T17:05:41.004Z,79.42
2018-03-04T17:07:43.578Z,79.09
2018-03-04T17:09:46.398Z,79.09
2018-03-04T17:11:49.094Z,78.99
2018-03-04T17:13:51.636Z,78.56
2018-03-04T17:15:55.099Z,78.34
2018-03-04T17:17:57.632Z,78.17
2018-03-04T17:20:00.732Z,78.41
2018-03-04T17:22:03.237Z,78.70
2018-03-04T17:24:08.698Z,79.07
2018-03-04T17:26:12.388Z,79.10
2018-03-04T17:28:15.107Z,79.76
2018-03-04T17:30:17.955Z,79.78
2018-03-04T17:32:23.638Z,79.37
2018-03-04T17:34:27.038Z,79.62
2018-03-04T17:36:29.548Z,79.15
2018-03-04T17:38:32.072Z,78.62
2018-03-04T17:40:34.545Z,79.12
2018-03-04T17:42:37.110Z,79.04
2018-03-04T17:44:39.683Z,78.90
2018-03-04T17:46:42.173Z,79.14
2018-03-04T17:48:44.642Z,78.83
2018-03-04T17:50:48.140Z,78.75
2018-03-04T17:52:50.712Z,78.90
2018-03-04T17:54:53.195Z,78.08
2018-03-04T17:56:55.772Z,78.56
2018-03-04T17:58:58.332Z,78.69
2018-03-04T18:01:00.879Z,78.58
2018-03-04T18:03:03.523Z,78.58
2018-03-04T18:05:06.094Z,78.97
2018-03-04T18:07:08.666Z,79.36
2018-03-04T18:09:11.177Z,79.20
2018-03-04T18:11:18.737Z,79.45
2018-03-04T18:13:23.443Z,79.70
2018-03-04T18:15:26.072Z,79.89
2018-03-04T18:17:29.325Z,79.96
2018-03-04T18:19:33.995Z,79.53
2018-03-04T18:21:38.603Z,79.64
2018-03-04T18:23:41.221Z,79.56
2018-03-04T18:25:43.750Z,79.37
2018-03-04T18:27:48.975Z,79.46
2018-03-04T18:29:53.109Z,79.01
2018-03-04T18:31:55.778Z,78.88
2018-03-04T18:33:58.296Z,79.04
2018-03-04T18:36:00.802Z,79.00
2018-03-04T18:38:03.337Z,78.88
2018-03-04T18:40:05.829Z,78.79
2018-03-04T18:42:08.348Z,78.76
2018-03-04T18:44:10.892Z,79.02
2018-03-04T18:46:13.387Z,78.51
2018-03-04T18:48:15.935Z,78.94
2018-03-04T18:50:19.145Z,78.79
2018-03-04T18:52:21.615Z,78.70
2018-03-04T18:54:24.324Z,78.82
2018-03-04T18:56:28.146Z,78.89
2018-03-04T18:58:32.992Z,78.80
2018-03-04T19:00:35.514Z,78.66
2018-03-04T19:02:38.275Z,78.10
2018-03-04T19:04:40.913Z,77.88
2018-03-04T19:06:43.476Z,78.17
2018-03-04T19:08:45.993Z,78.34
2018-03-04T19:10:48.515Z,78.86
2018-03-04T19:12:51.003Z,78.72
2018-03-04T19:14:55.481Z,79.11
2018-03-04T19:16:59.602Z,79.06
2018-03-04T19:19:02.129Z,79.04
2018-03-04T19:21:04.690Z,78.70
2018-03-04T19:23:07.314Z,78.63
2018-03-04T19:25:09.851Z,79.27
2018-03-04T19:27:12.378Z,79.29
2018-03-04T19:29:18.735Z,79.72
2018-03-04T19:31:21.284Z,79.69
2018-03-04T19:33:23.795Z,79.52
2018-03-04T19:35:26.484Z,79.42
2018-03-04T19:37:30.050Z,79.17
2018-03-04T19:39:33.098Z,78.11
2018-03-04T19:41:35.698Z,78.10
2018-03-04T19:43:38.255Z,78.53
2018-03-04T19:45:42.519Z,78.43
2018-03-04T19:47:45.227Z,77.92
2018-03-04T19:49:49.071Z,78.34
2018-03-04T19:51:51.625Z,77.98
2018-03-04T19:53:54.178Z,78.01
2018-03-04T19:55:56.704Z,78.08
2018-03-04T19:57:59.200Z,78.04
2018-03-04T20:00:01.790Z,78.34
2018-03-04T20:02:04.279Z,78.10
2018-03-04T20:04:06.776Z,77.50
2018-03-04T20:06:09.450Z,77.96
2018-03-04T20:08:11.941Z,78.18
2018-03-04T20:10:14.444Z,78.40
2018-03-04T20:12:17.012Z,77.70
2018-03-04T20:14:19.537Z,77.76
2018-03-04T20:16:22.148Z,77.87
2018-03-04T20:18:24.785Z,77.82
2018-03-04T20:20:27.359Z,77.89
2018-03-04T20:22:29.866Z,77.80
2018-03-04T20:24:32.394Z,78.06
2018-03-04T20:26:34.944Z,78.21
2018-03-04T20:28:38.329Z,77.63
2018-03-04T20:30:42.373Z,77.34
2018-03-04T20:32:44.972Z,77.49
2018-03-04T20:34:47.561Z,77.03
2018-03-04T20:36:50.182Z,77.46
2018-03-04T20:38:52.779Z,77.14
2018-03-04T20:40:57.721Z,77.34
2018-03-04T20:43:01.099Z,77.64
2018-03-04T20:45:06.106Z,77.23
2018-03-04T20:47:08.690Z,76.66
2018-03-04T20:49:11.370Z,76.50
2018-03-04T20:51:14.328Z,76.93
2018-03-04T20:53:16.961Z,76.92
2018-03-04T20:55:19.803Z,76.92
2018-03-04T20:57:22.440Z,77.43
2018-03-04T20:59:26.900Z,77.56
2018-03-04T21:01:29.621Z,77.52
2018-03-04T21:03:33.731Z,77.58
2018-03-04T21:05:36.236Z,77.24
2018-03-04T21:07:38.740Z,77.42
2018-03-04T21:09:41.306Z,77.88
2018-03-04T21:11:43.813Z,77.69
2018-03-04T21:13:47.109Z,77.37
2018-03-04T21:15:50.905Z,77.79
2018-03-04T21:17:53.504Z,77.54
2018-03-04T21:19:56.056Z,77.46
2018-03-04T21:21:58.519Z,78.24
2018-03-04T21:24:05.353Z,78.21
2018-03-04T21:26:18.237Z,77.63
2018-03-04T21:28:29.788Z,77.85
2018-03-04T21:30:32.391Z,78.07
2018-03-04T21:32:35.660Z,78.56
2018-03-04T21:34:38.192Z,77.66
2018-03-04T21:36:40.702Z,77.64
2018-03-04T21:38:43.721Z,76.87
2018-03-04T21:40:46.424Z,77.48
2018-03-04T21:42:50.827Z,77.38
2018-03-04T21:44:54.874Z,78.09
2018-03-04T21:46:57.477Z,78.17
2018-03-04T21:49:00.295Z,78.66
2018-03-04T21:51:07.035Z,79.22
2018-03-04T21:53:11.491Z,78.75
2018-03-04T21:55:15.043Z,78.69
2018-03-04T21:57:20.020Z,78.35
2018-03-04T21:59:24.246Z,78.62
2018-03-04T22:01:27.702Z,78.79
2018-03-04T22:03:30.652Z,78.72
2018-03-04T22:05:33.128Z,78.82
2018-03-04T22:07:35.822Z,78.79
2018-03-04T22:09:38.376Z,78.83
2018-03-04T22:11:40.922Z,79.59
2018-03-04T22:13:43.469Z,79.40
2018-03-04T22:15:46.002Z,79.36
2018-03-04T22:17:48.564Z,79.37
2018-03-04T22:19:51.117Z,79.03
2018-03-04T22:21:53.615Z,79.41
2018-03-04T22:23:56.163Z,79.82
2018-03-04T22:25:59.618Z,79.48
2018-03-04T22:28:02.641Z,79.88
2018-03-04T22:30:05.182Z,80.01
2018-03-04T22:32:08.482Z,79.11
2018-03-04T22:34:10.975Z,79.28
2018-03-04T22:36:13.605Z,79.17
2018-03-04T22:38:16.132Z,78.96
2018-03-04T22:40:18.617Z,78.91
2018-03-04T22:42:21.218Z,79.05
2018-03-04T22:44:23.752Z,79.04
2018-03-04T22:46:26.217Z,79.45
2018-03-04T22:48:28.691Z,80.00
2018-03-04T22:50:31.177Z,79.71
2018-03-04T22:52:33.749Z,79.48
2018-03-04T22:54:36.284Z,79.94
2018-03-04T22:56:38.775Z,79.73
2018-03-04T22:58:41.322Z,79.68
2018-03-04T23:00:43.825Z,79.67
2018-03-04T23:02:46.322Z,79.94
2018-03-04T23:04:48.822Z,79.73
2018-03-04T23:06:51.313Z,80.43
2018-03-04T23:08:53.893Z,81.83
2018-03-04T23:10:56.417Z,82.06
2018-03-04T23:12:58.936Z,83.42
2018-03-04T23:15:01.586Z,83.33
2018-03-04T23:17:04.183Z,83.29
2018-03-04T23:19:06.706Z,83.21
2018-03-04T23:21:09.262Z,84.23
2018-03-04T23:23:11.776Z,85.44
2018-03-04T23:25:14.281Z,84.54
2018-03-04T23:27:16.773Z,85.12
2018-03-04T23:29:19.304Z,86.64
2018-03-04T23:31:21.753Z,86.41
2018-03-04T23:33:25.287Z,86.98
2018-03-04T23:35:27.865Z,86.11
2018-03-04T23:37:30.428Z,86.12
2018-03-04T23:39:32.966Z,84.55
2018-03-04T23:41:35.402Z,84.43
2018-03-04T23:43:37.917Z,84.58
2018-03-04T23:45:40.453Z,84.68
2018-03-04T23:47:42.945Z,84.26
2018-03-04T23:49:45.432Z,83.79
2018-03-04T23:51:47.929Z,84.30
2018-03-04T23:53:50.416Z,83.93
2018-03-04T23:55:52.901Z,84.24
2018-03-04T23:57:55.367Z,84.78
2018-03-04T23:59:57.861Z,84.64
